Time;durP1;ratioP1;P1;durP2;ratioP2;P2;SDS_P1;SDS_P2;PMS_P1;PMS_P2;Temp;Humidity;BMP_temperature;BMP_pressure;BME280_temperature;BME280_humidity;BME280_pressure;Samples;Min_cycle;Max_cycle;Signal;HPM_P1;HPM_P2
2022/09/14 00:02:12;;;;;;;4.03;3.72;;;;;;;;;;5035048;28;20029;-66
2022/09/14 00:04:39;;;;;;;4.20;3.70;;;;;;;;;;5034641;28;20048;-66
2022/09/14 00:07:04;;;;;;;4.95;3.80;;;;;;;;;;5032689;28;20029;-66
2022/09/14 00:09:29;;;;;;;6.18;3.58;;;;;;;;;;5037566;28;20113;-65
2022/09/14 00:11:55;;;;;;;4.32;3.92;;;;;;;;;;5037731;28;20116;-65
2022/09/14 00:14:21;;;;;;;4.43;3.55;;;;;;;;;;5036465;28;20025;-62
2022/09/14 00:16:46;;;;;;;5.00;3.40;;;;;;;;;;5037725;28;20040;-66
2022/09/14 00:19:16;;;;;;;3.95;3.65;;;;;;;;;;5036511;28;20032;-65
2022/09/14 00:21:42;;;;;;;3.65;3.35;;;;;;;;;;5037485;28;20082;-65
2022/09/14 00:24:09;;;;;;;4.20;3.80;;;;;;;;;;5037221;28;20394;-66
2022/09/14 00:26:35;;;;;;;4.15;3.75;;;;;;;;;;5037817;28;20144;-66
2022/09/14 00:29:04;;;;;;;4.38;3.97;;;;;;;;;;5037176;28;20100;-66
2022/09/14 00:31:34;;;;;;;4.22;3.90;;;;;;;;;;5037246;28;20033;-66
2022/09/14 00:34:00;;;;;;;3.88;3.60;;;;;;;;;;5037297;28;20041;-66
2022/09/14 00:36:27;;;;;;;3.75;3.45;;;;;;;;;;5037599;28;20037;-66
2022/09/14 00:38:56;;;;;;;4.47;4.07;;;;;;;;;;5037604;28;20025;-65
2022/09/14 00:41:22;;;;;;;4.25;3.85;;;;;;;;;;5037357;28;20120;-65
2022/09/14 00:44:01;;;;;;;4.47;3.63;;;;;;;;;;5036935;28;20096;-62
2022/09/14 00:46:28;;;;;;;4.07;3.60;;;;;;;;;;5037110;28;20052;-64
2022/09/14 00:48:54;;;;;;;4.00;3.70;;;;;;;;;;5035306;28;20033;-65
2022/09/14 00:51:20;;;;;;;5.10;3.88;;;;;;;;;;5036863;28;20136;-65
2022/09/14 00:53:47;;;;;;;4.60;4.22;;;;;;;;;;5036885;28;20481;-65
2022/09/14 00:56:13;;;;;;;4.13;3.83;;;;;;;;;;5036964;28;20025;-65
2022/09/14 00:58:38;;;;;;;7.60;3.60;;;;;;;;;;5037207;28;20025;-65
2022/09/14 01:01:04;;;;;;;5.18;3.75;;;;;;;;;;5036918;28;20032;-65
2022/09/14 01:03:29;;;;;;;3.92;3.63;;;;;;;;;;5035043;28;20033;-65
2022/09/14 01:06:17;;;;;;;4.40;3.75;;;;;;;;;;5036628;28;20030;-65
2022/09/14 01:08:49;;;;;;;4.25;3.60;;;;;;;;;;5036740;28;20045;-62
2022/09/14 01:11:24;;;;;;;4.57;3.70;;;;;;;;;;5036759;28;20040;-62
2022/09/14 01:14:04;;;;;;;3.83;3.47;;;;;;;;;;5036901;28;20128;-62
2022/09/14 01:16:30;;;;;;;;;;;;;;;;;;5036979;28;20079;-62
2022/09/14 01:19:08;;;;;;;4.93;3.90;;;;;;;;;;5036599;28;19908;-64
2022/09/14 01:21:35;;;;;;;4.53;3.80;;;;;;;;;;5034865;28;20076;-65
2022/09/14 01:24:01;;;;;;;5.97;3.65;;;;;;;;;;5036596;28;20075;-65
2022/09/14 01:26:54;;;;;;;5.63;3.60;;;;;;;;;;5036349;28;20481;-65
2022/09/14 01:29:24;;;;;;;5.28;3.60;;;;;;;;;;5036017;28;20034;-65
2022/09/14 01:31:55;;;;;;;4.25;3.85;;;;;;;;;;5036227;28;20432;-65
2022/09/14 01:34:20;;;;;;;3.90;3.60;;;;;;;;;;5036072;28;20026;-65
2022/09/14 01:36:50;;;;;;;4.80;3.70;;;;;;;;;;5036516;28;20113;-65
2022/09/14 01:39:17;;;;;;;4.90;3.70;;;;;;;;;;5036595;28;20084;-65
2022/09/14 01:41:42;;;;;;;4.03;3.67;;;;;;;;;;5036211;28;20022;-65
2022/09/14 01:44:07;;;;;;;4.72;3.92;;;;;;;;;;5035065;28;20086;-65
2022/09/14 01:46:38;;;;;;;4.23;3.70;;;;;;;;;;5035130;28;20013;-65
2022/09/14 01:49:15;;;;;;;4.20;3.60;;;;;;;;;;5035804;28;20606;-66
2022/09/14 01:51:40;;;;;;;3.83;3.53;;;;;;;;;;5035763;28;20045;-65
2022/09/14 01:54:09;;;;;;;4.30;3.90;;;;;;;;;;5036146;28;20116;-65
2022/09/14 01:56:41;;;;;;;5.47;3.80;;;;;;;;;;5036364;28;20032;-66
2022/09/14 01:59:10;;;;;;;4.57;3.85;;;;;;;;;;5035503;28;20091;-66
2022/09/14 02:01:59;;;;;;;5.07;3.92;;;;;;;;;;5035535;28;20104;-66
2022/09/14 02:04:31;;;;;;;4.03;3.70;;;;;;;;;;5035979;28;20373;-66
2022/09/14 02:06:57;;;;;;;5.00;3.90;;;;;;;;;;5035741;28;20068;-62
2022/09/14 02:09:25;;;;;;;4.13;3.60;;;;;;;;;;5034842;28;20065;-62
2022/09/14 02:11:51;;;;;;;4.05;3.75;;;;;;;;;;5035372;28;20025;-66
2022/09/14 02:14:17;;;;;;;4.28;3.80;;;;;;;;;;5035388;28;20044;-66
2022/09/14 02:16:44;;;;;;;4.45;4.05;;;;;;;;;;5035478;28;20350;-66
2022/09/14 02:19:10;;;;;;;5.72;4.40;;;;;;;;;;5035433;28;20026;-65
2022/09/14 02:21:37;;;;;;;4.07;3.75;;;;;;;;;;5035534;28;20056;-65
2022/09/14 02:24:03;;;;;;;3.72;3.42;;;;;;;;;;5035485;28;20406;-65
2022/09/14 02:26:28;;;;;;;4.25;3.85;;;;;;;;;;5033968;28;20029;-65
2022/09/14 02:28:55;;;;;;;4.10;3.70;;;;;;;;;;5034621;28;20444;-66
2022/09/14 02:31:20;;;;;;;6.07;4.05;;;;;;;;;;5034118;28;20163;-66
2022/09/14 02:33:54;;;;;;;4.88;3.40;;;;;;;;;;5035293;28;20498;-66
2022/09/14 02:36:38;;;;;;;4.65;3.90;;;;;;;;;;5034858;28;20032;-66
2022/09/14 02:39:07;;;;;;;4.95;3.75;;;;;;;;;;5035150;28;20022;-66
2022/09/14 02:41:44;;;;;;;4.20;3.80;;;;;;;;;;5033778;28;20018;-66
2022/09/14 02:44:27;;;;;;;6.05;3.72;;;;;;;;;;5035182;28;20029;-62
2022/09/14 02:46:55;;;;;;;6.07;4.15;;;;;;;;;;5033737;28;20038;-62
2022/09/14 02:49:39;;;;;;;6.03;4.00;;;;;;;;;;5034741;28;20389;-62
2022/09/14 02:52:28;;;;;;;4.05;3.63;;;;;;;;;;5034336;28;20393;-62
2022/09/14 02:55:20;;;;;;;4.78;3.75;;;;;;;;;;5023036;28;20038;-62
2022/09/14 02:57:58;;;;;;;4.32;3.92;;;;;;;;;;5031944;28;20056;-62
2022/09/14 03:00:23;;;;;;;4.15;3.78;;;;;;;;;;5034407;28;20039;-62
2022/09/14 03:02:49;;;;;;;4.90;4.03;;;;;;;;;;5033608;28;20025;-62
2022/09/14 03:05:14;;;;;;;4.47;4.07;;;;;;;;;;5034497;28;20029;-62
2022/09/14 03:07:39;;;;;;;4.40;4.10;;;;;;;;;;5034926;28;20413;-62
2022/09/14 03:10:05;;;;;;;5.97;4.10;;;;;;;;;;5034334;28;20037;-62
2022/09/14 03:12:30;;;;;;;4.82;4.30;;;;;;;;;;5034144;28;20024;-62
2022/09/14 03:14:55;;;;;;;4.38;4.00;;;;;;;;;;5033195;28;20030;-62
2022/09/14 03:17:21;;;;;;;4.75;4.35;;;;;;;;;;5034596;28;20024;-62
2022/09/14 03:19:46;;;;;;;5.88;3.85;;;;;;;;;;5033191;28;20171;-62
2022/09/14 03:22:11;;;;;;;4.35;3.95;;;;;;;;;;5034547;28;20040;-62
2022/09/14 03:24:37;;;;;;;7.15;4.38;;;;;;;;;;5034557;28;20059;-62
2022/09/14 03:27:02;;;;;;;6.03;4.20;;;;;;;;;;5049593;28;20377;-62
2022/09/14 03:29:30;;;;;;;5.63;4.07;;;;;;;;;;5034423;28;20099;-62
2022/09/14 03:31:55;;;;;;;4.20;3.78;;;;;;;;;;5034188;28;20438;-62
2022/09/14 03:34:21;;;;;;;5.40;4.05;;;;;;;;;;5033982;28;20071;-62
2022/09/14 03:36:46;;;;;;;4.70;3.95;;;;;;;;;;5034171;28;20389;-62
2022/09/14 03:39:12;;;;;;;4.28;3.90;;;;;;;;;;5034115;28;20477;-62
2022/09/14 03:41:37;;;;;;;8.82;4.40;;;;;;;;;;5032531;28;20450;-62
2022/09/14 03:44:03;;;;;;;9.10;4.35;;;;;;;;;;5032490;28;20041;-62
2022/09/14 03:46:28;;;;;;;4.65;4.25;;;;;;;;;;5033558;28;20025;-63
2022/09/14 03:48:54;;;;;;;6.75;4.10;;;;;;;;;;5033535;28;20139;-62
2022/09/14 03:51:20;;;;;;;4.50;3.90;;;;;;;;;;5033681;28;20041;-62
2022/09/14 03:53:45;;;;;;;4.72;4.10;;;;;;;;;;5034066;28;20079;-63
2022/09/14 03:56:15;;;;;;;6.25;3.90;;;;;;;;;;5033947;28;20056;-62
2022/09/14 03:58:41;;;;;;;4.60;4.20;;;;;;;;;;5033963;28;20036;-62
2022/09/14 04:01:08;;;;;;;4.30;3.90;;;;;;;;;;5032674;28;20440;-62
2022/09/14 04:03:34;;;;;;;5.13;4.07;;;;;;;;;;5032879;28;20038;-62
2022/09/14 04:05:59;;;;;;;5.68;4.22;;;;;;;;;;5033919;28;20071;-66
2022/09/14 04:08:25;;;;;;;5.20;4.15;;;;;;;;;;5033717;28;20053;-66
2022/09/14 04:10:50;;;;;;;4.38;3.83;;;;;;;;;;5033014;28;20018;-66
2022/09/14 04:13:16;;;;;;;5.65;3.58;;;;;;;;;;5033045;28;20026;-66
2022/09/14 04:15:41;;;;;;;6.65;3.97;;;;;;;;;;5031319;28;20431;-66
2022/09/14 04:18:07;;;;;;;4.22;3.83;;;;;;;;;;5033054;28;20057;-65
2022/09/14 04:20:32;;;;;;;5.85;4.13;;;;;;;;;;5031604;28;20108;-66
2022/09/14 04:22:57;;;;;;;5.75;4.10;;;;;;;;;;5032702;28;20029;-66
2022/09/14 04:25:23;;;;;;;6.55;3.78;;;;;;;;;;5032891;28;20032;-66
2022/09/14 04:27:49;;;;;;;4.38;3.97;;;;;;;;;;5032787;28;20037;-66
2022/09/14 04:30:14;;;;;;;6.20;4.13;;;;;;;;;;5032320;28;20125;-66
2022/09/14 04:32:40;;;;;;;6.28;4.10;;;;;;;;;;5030061;28;20378;-66
2022/09/14 04:35:05;;;;;;;6.38;4.45;;;;;;;;;;5032117;28;20072;-66
2022/09/14 04:37:31;;;;;;;4.85;4.35;;;;;;;;;;5032262;28;20030;-66
2022/09/14 04:39:57;;;;;;;9.25;4.70;;;;;;;;;;5032342;28;20028;-62
2022/09/14 04:42:22;;;;;;;7.38;3.97;;;;;;;;;;5032072;28;20025;-62
2022/09/14 04:44:47;;;;;;;5.82;4.28;;;;;;;;;;5030206;28;20381;-62
2022/09/14 04:47:13;;;;;;;7.10;4.68;;;;;;;;;;5030454;28;20080;-62
2022/09/14 04:49:38;;;;;;;5.93;4.55;;;;;;;;;;5030390;28;20450;-62
2022/09/14 04:52:04;;;;;;;7.30;4.72;;;;;;;;;;5030375;28;20096;-62
2022/09/14 04:54:29;;;;;;;12.77;5.22;;;;;;;;;;5030470;28;20072;-62
2022/09/14 04:56:54;;;;;;;6.30;4.28;;;;;;;;;;5035119;28;20380;-65
2022/09/14 04:59:20;;;;;;;7.25;4.60;;;;;;;;;;5035462;28;20480;-61
2022/09/14 05:01:48;;;;;;;10.30;4.60;;;;;;;;;;5035335;28;20079;-61
2022/09/14 05:04:14;;;;;;;5.57;4.95;;;;;;;;;;5035596;28;20075;-61
2022/09/14 05:06:40;;;;;;;13.50;5.10;;;;;;;;;;5035393;28;20029;-62
2022/09/14 05:09:07;;;;;;;7.45;4.75;;;;;;;;;;5033937;28;20135;-62
2022/09/14 05:11:33;;;;;;;6.55;5.15;;;;;;;;;;5035414;28;20389;-62
2022/09/14 05:13:58;;;;;;;6.35;5.20;;;;;;;;;;5035019;28;20022;-62
2022/09/14 05:16:25;;;;;;;6.30;4.55;;;;;;;;;;5035885;28;20364;-62
2022/09/14 05:18:53;;;;;;;6.60;5.00;;;;;;;;;;5035164;28;20056;-62
2022/09/14 05:21:19;;;;;;;9.75;5.10;;;;;;;;;;5035171;28;20029;-62
2022/09/14 05:23:45;;;;;;;8.57;4.95;;;;;;;;;;5035135;28;20439;-62
2022/09/14 05:26:11;;;;;;;6.53;5.28;;;;;;;;;;5035083;28;20444;-62
2022/09/14 05:28:36;;;;;;;5.90;5.10;;;;;;;;;;5035005;28;20021;-62
2022/09/14 05:31:05;;;;;;;6.15;4.65;;;;;;;;;;5034658;28;20460;-61
2022/09/14 05:33:31;;;;;;;7.55;4.78;;;;;;;;;;5034851;28;20029;-62
2022/09/14 05:36:03;;;;;;;6.35;5.03;;;;;;;;;;5034893;28;20121;-62
2022/09/14 05:38:29;;;;;;;10.20;5.25;;;;;;;;;;5034730;28;20104;-62
2022/09/14 05:40:54;;;;;;;7.53;5.20;;;;;;;;;;5034763;28;20446;-62
2022/09/14 05:43:21;;;;;;;7.93;4.93;;;;;;;;;;5034682;28;20469;-62
2022/09/14 05:45:46;;;;;;;8.68;4.97;;;;;;;;;;5034708;28;20048;-62
2022/09/14 05:48:12;;;;;;;6.60;4.22;;;;;;;;;;5034655;28;20494;-62
2022/09/14 05:50:37;;;;;;;8.15;4.78;;;;;;;;;;5034063;28;20045;-62
2022/09/14 05:53:03;;;;;;;4.68;4.28;;;;;;;;;;5033248;28;20033;-62
2022/09/14 05:55:28;;;;;;;4.20;3.88;;;;;;;;;;5033237;28;20075;-62
2022/09/14 05:57:53;;;;;;;7.30;4.35;;;;;;;;;;5034532;28;20083;-62
2022/09/14 06:00:20;;;;;;;5.05;3.47;;;;;;;;;;5034416;28;20108;-62
2022/09/14 06:02:46;;;;;;;6.15;3.50;;;;;;;;;;5034352;28;20044;-61
2022/09/14 06:05:11;;;;;;;4.95;3.67;;;;;;;;;;5034289;28;20029;-62
2022/09/14 06:07:37;;;;;;;5.18;3.78;;;;;;;;;;5034142;28;20109;-62
2022/09/14 06:10:02;;;;;;;5.03;3.95;;;;;;;;;;5034427;28;20029;-62
2022/09/14 06:12:28;;;;;;;5.10;3.67;;;;;;;;;;5034142;28;20065;-62
2022/09/14 06:14:54;;;;;;;7.05;3.45;;;;;;;;;;5049051;28;20022;-61
2022/09/14 06:17:19;;;;;;;4.10;2.58;;;;;;;;;;5032696;28;20033;-62
2022/09/14 06:19:44;;;;;;;5.32;3.47;;;;;;;;;;5033350;28;20025;-61
2022/09/14 06:22:10;;;;;;;6.25;3.03;;;;;;;;;;5035318;28;20152;-62
2022/09/14 06:24:36;;;;;;;4.97;2.80;;;;;;;;;;5034871;28;20033;-61
2022/09/14 06:27:01;;;;;;;3.67;3.03;;;;;;;;;;5034981;28;20025;-62
2022/09/14 06:29:26;;;;;;;3.55;3.25;;;;;;;;;;5034075;28;20036;-62
2022/09/14 06:31:52;;;;;;;6.15;3.08;;;;;;;;;;5033330;28;20059;-61
2022/09/14 06:34:18;;;;;;;10.40;3.70;;;;;;;;;;5034102;28;20017;-62
2022/09/14 06:36:44;;;;;;;7.07;3.90;;;;;;;;;;5032933;28;20112;-62
2022/09/14 06:39:09;;;;;;;7.75;3.20;;;;;;;;;;5034200;28;20028;-65
2022/09/14 06:41:35;;;;;;;4.25;3.75;;;;;;;;;;5034324;28;20407;-65
2022/09/14 06:44:03;;;;;;;4.93;3.22;;;;;;;;;;5034465;28;20009;-66
2022/09/14 06:46:29;;;;;;;5.10;3.72;;;;;;;;;;5034836;28;20038;-65
2022/09/14 06:48:59;;;;;;;13.23;3.15;;;;;;;;;;5035014;28;20025;-65
2022/09/14 06:51:32;;;;;;;5.88;2.75;;;;;;;;;;5034606;28;20029;-65
2022/09/14 06:53:58;;;;;;;8.48;3.20;;;;;;;;;;5034463;28;20064;-66
2022/09/14 06:56:25;;;;;;;6.70;3.47;;;;;;;;;;5034203;28;20457;-66
2022/09/14 06:58:51;;;;;;;7.50;2.67;;;;;;;;;;5034376;28;20083;-66
2022/09/14 07:01:18;;;;;;;8.10;4.70;;;;;;;;;;5034325;28;20025;-66
2022/09/14 07:03:45;;;;;;;9.88;3.60;;;;;;;;;;5034716;28;20029;-66
2022/09/14 07:06:15;;;;;;;14.25;3.97;;;;;;;;;;5034878;28;20455;-65
2022/09/14 07:08:41;;;;;;;5.18;3.55;;;;;;;;;;5033810;28;20040;-65
2022/09/14 07:11:07;;;;;;;12.00;3.88;;;;;;;;;;5034205;28;20017;-65
2022/09/14 07:13:33;;;;;;;4.93;3.70;;;;;;;;;;5034086;28;20044;-65
2022/09/14 07:15:58;;;;;;;5.03;3.75;;;;;;;;;;5034110;28;20010;-65
2022/09/14 07:18:31;;;;;;;6.45;4.13;;;;;;;;;;5034092;28;20029;-65
2022/09/14 07:21:00;;;;;;;5.88;4.38;;;;;;;;;;5032644;28;20035;-65
2022/09/14 07:23:25;;;;;;;8.15;3.15;;;;;;;;;;5033990;28;20424;-65
2022/09/14 07:25:58;;;;;;;7.68;3.47;;;;;;;;;;5033754;28;20030;-65
2022/09/14 07:28:23;;;;;;;8.02;3.92;;;;;;;;;;5032816;28;20053;-65
2022/09/14 07:30:48;;;;;;;6.40;5.00;;;;;;;;;;5032682;28;20060;-65
2022/09/14 07:33:14;;;;;;;5.10;4.60;;;;;;;;;;5031333;28;20083;-65
2022/09/14 07:35:39;;;;;;;7.72;4.28;;;;;;;;;;5032674;28;20377;-65
2022/09/14 07:38:04;;;;;;;4.28;3.22;;;;;;;;;;5032867;28;20025;-65
2022/09/14 07:40:30;;;;;;;5.32;4.55;;;;;;;;;;5031209;28;20021;-66
2022/09/14 07:42:55;;;;;;;6.60;5.75;;;;;;;;;;5031329;28;20033;-66
2022/09/14 07:45:20;;;;;;;6.03;4.97;;;;;;;;;;5030985;28;20497;-65
2022/09/14 07:47:46;;;;;;;18.15;7.65;;;;;;;;;;5032507;28;20393;-65
2022/09/14 07:50:11;;;;;;;17.00;8.52;;;;;;;;;;5032207;28;20152;-66
2022/09/14 07:52:37;;;;;;;8.88;5.65;;;;;;;;;;5033270;28;20085;-61
2022/09/14 07:55:04;;;;;;;31.58;10.70;;;;;;;;;;5033617;28;20037;-62
2022/09/14 07:57:29;;;;;;;8.70;6.13;;;;;;;;;;5031964;28;20026;-62
2022/09/14 07:59:57;;;;;;;15.45;7.55;;;;;;;;;;5032419;28;20469;-61
2022/09/14 08:02:23;;;;;;;6.78;5.05;;;;;;;;;;5032161;28;20033;-61
2022/09/14 08:04:52;;;;;;;7.65;6.10;;;;;;;;;;5032454;28;20021;-62
2022/09/14 08:07:18;;;;;;;6.00;4.78;;;;;;;;;;5032674;28;20401;-61
2022/09/14 08:09:44;;;;;;;6.22;5.63;;;;;;;;;;5032340;28;20030;-61
2022/09/14 08:12:09;;;;;;;7.82;5.75;;;;;;;;;;5032382;28;20045;-62
2022/09/14 08:14:35;;;;;;;5.72;5.22;;;;;;;;;;5032554;28;20468;-61
2022/09/14 08:17:01;;;;;;;7.70;5.30;;;;;;;;;;5032538;28;20041;-61
2022/09/14 08:19:26;;;;;;;7.22;5.63;;;;;;;;;;5032251;28;20087;-62
2022/09/14 08:21:51;;;;;;;6.50;5.78;;;;;;;;;;5031963;28;20045;-61
2022/09/14 08:24:18;;;;;;;6.35;5.45;;;;;;;;;;5031956;28;20384;-61
2022/09/14 08:26:43;;;;;;;10.60;5.75;;;;;;;;;;5032507;28;20053;-62
2022/09/14 08:29:10;;;;;;;8.20;4.97;;;;;;;;;;5031390;28;20026;-62
2022/09/14 08:31:37;;;;;;;8.25;6.22;;;;;;;;;;5035610;28;20041;-61
2022/09/14 08:34:03;;;;;;;12.70;7.30;;;;;;;;;;5036320;28;20382;-62
2022/09/14 08:36:30;;;;;;;8.60;6.43;;;;;;;;;;5035996;28;20029;-61
2022/09/14 08:38:55;;;;;;;7.45;5.53;;;;;;;;;;5036175;28;20040;-62
2022/09/14 08:41:30;;;;;;;13.48;6.68;;;;;;;;;;5035873;28;20033;-62
2022/09/14 08:44:00;;;;;;;9.95;6.22;;;;;;;;;;5036134;28;20033;-61
2022/09/14 08:46:29;;;;;;;9.98;6.43;;;;;;;;;;5034808;28;20044;-62
2022/09/14 08:48:55;;;;;;;9.15;6.25;;;;;;;;;;5036051;28;20116;-65
2022/09/14 08:51:20;;;;;;;6.50;5.90;;;;;;;;;;5035556;28;20078;-65
2022/09/14 08:53:46;;;;;;;4.55;4.05;;;;;;;;;;5036021;28;20494;-65
2022/09/14 08:56:14;;;;;;;7.45;5.50;;;;;;;;;;5035147;28;20029;-65
2022/09/14 08:58:58;;;;;;;6.40;4.57;;;;;;;;;;5035921;28;20018;-66
2022/09/14 09:01:27;;;;;;;6.20;4.85;;;;;;;;;;5035553;28;20040;-66
2022/09/14 09:03:58;;;;;;;7.88;5.25;;;;;;;;;;5035743;28;20032;-66
2022/09/14 09:06:26;;;;;;;4.15;3.83;;;;;;;;;;5035670;28;20038;-66
2022/09/14 09:08:52;;;;;;;9.15;6.32;;;;;;;;;;5035520;28;20343;-66
2022/09/14 09:11:18;;;;;;;7.00;5.28;;;;;;;;;;5035570;28;20041;-66
2022/09/14 09:13:44;;;;;;;6.03;4.05;;;;;;;;;;5035568;28;20036;-65
2022/09/14 09:16:11;;;;;;;5.55;4.30;;;;;;;;;;5035374;28;20110;-65
2022/09/14 09:18:39;;;;;;;6.75;6.00;;;;;;;;;;5035853;28;20014;-65
2022/09/14 09:21:07;;;;;;;10.20;4.22;;;;;;;;;;5035074;28;20045;-66
2022/09/14 09:23:32;;;;;;;14.93;7.00;;;;;;;;;;5035398;28;20109;-65
2022/09/14 09:26:16;;;;;;;5.85;3.60;;;;;;;;;;5035295;28;20029;-62
2022/09/14 09:28:47;;;;;;;11.40;5.68;;;;;;;;;;5034686;28;20041;-61
2022/09/14 09:31:13;;;;;;;11.57;9.27;;;;;;;;;;5034940;28;20104;-61
2022/09/14 09:34:13;;;;;;;9.20;6.82;;;;;;;;;;5033451;28;20021;-61
2022/09/14 09:36:46;;;;;;;13.57;7.50;;;;;;;;;;5033888;28;20033;-61
2022/09/14 09:39:13;;;;;;;13.77;8.90;;;;;;;;;;5035467;28;20116;-61
2022/09/14 09:41:59;;;;;;;9.82;6.88;;;;;;;;;;5033397;28;20112;-61
2022/09/14 09:44:24;;;;;;;11.60;8.05;;;;;;;;;;5033541;28;20037;-62
2022/09/14 09:46:51;;;;;;;11.55;7.13;;;;;;;;;;5034390;28;20025;-62
2022/09/14 09:49:37;;;;;;;14.70;10.60;;;;;;;;;;5034476;28;20025;-61
2022/09/14 09:52:11;;;;;;;3.05;2.83;;;;;;;;;;5033887;28;20041;-62
2022/09/14 09:54:38;;;;;;;6.05;4.35;;;;;;;;;;5033991;28;20030;-61
2022/09/14 09:57:05;;;;;;;5.38;4.88;;;;;;;;;;5034548;28;20092;-61
2022/09/14 09:59:36;;;;;;;8.13;6.53;;;;;;;;;;5033482;28;20540;-61
2022/09/14 10:02:31;;;;;;;5.63;4.85;;;;;;;;;;5032457;28;20060;-62
2022/09/14 10:05:03;;;;;;;4.20;3.53;;;;;;;;;;5019773;28;20555;-62
2022/09/14 10:07:30;;;;;;;7.38;6.15;;;;;;;;;;5033643;28;20037;-62
2022/09/14 10:10:05;;;;;;;5.97;5.22;;;;;;;;;;5032640;28;20022;-62
2022/09/14 10:12:31;;;;;;;8.02;5.32;;;;;;;;;;5033956;28;20113;-62
2022/09/14 10:15:15;;;;;;;5.45;4.38;;;;;;;;;;5033645;28;20501;-62
2022/09/14 10:17:52;;;;;;;3.08;2.60;;;;;;;;;;5032027;28;20061;-62
2022/09/14 10:20:22;;;;;;;4.35;3.90;;;;;;;;;;5033949;28;20025;-66
2022/09/14 10:22:48;;;;;;;1.63;1.52;;;;;;;;;;5033230;28;20112;-61
2022/09/14 10:25:13;;;;;;;3.30;3.05;;;;;;;;;;5032292;28;20025;-63
2022/09/14 10:27:51;;;;;;;1.33;1.25;;;;;;;;;;5034392;28;20026;-60
2022/09/14 10:30:18;;;;;;;3.25;3.00;;;;;;;;;;5032976;28;20037;-59
2022/09/14 10:32:59;;;;;;;3.13;2.35;;;;;;;;;;5033156;28;20021;-63
2022/09/14 10:35:28;;;;;;;4.32;3.22;;;;;;;;;;5033705;28;20063;-64
2022/09/14 10:37:58;;;;;;;2.60;2.40;;;;;;;;;;5032979;28;20030;-63
2022/09/14 10:40:32;;;;;;;3.80;3.50;;;;;;;;;;5034193;28;20125;-63
2022/09/14 10:43:03;;;;;;;3.97;3.47;;;;;;;;;;5033575;28;20092;-64
2022/09/14 10:45:34;;;;;;;3.28;2.92;;;;;;;;;;5033880;28;20112;-64
2022/09/14 10:48:05;;;;;;;4.82;3.28;;;;;;;;;;5034289;28;20441;-63
2022/09/14 10:50:47;;;;;;;4.35;3.00;;;;;;;;;;5033022;28;20682;-63
2022/09/14 10:53:21;;;;;;;4.30;3.38;;;;;;;;;;5032213;28;20023;-63
2022/09/14 10:56:00;;;;;;;2.17;2.08;;;;;;;;;;5032980;28;20068;-63
2022/09/14 10:58:37;;;;;;;3.08;2.63;;;;;;;;;;5031773;28;20376;-64
2022/09/14 11:01:17;;;;;;;1.85;1.75;;;;;;;;;;5033376;28;20072;-63
2022/09/14 11:04:01;;;;;;;2.72;2.42;;;;;;;;;;5033609;28;20087;-60
2022/09/14 11:06:44;;;;;;;2.38;1.92;;;;;;;;;;5033233;28;20459;-60
2022/09/14 11:09:27;;;;;;;2.15;2.03;;;;;;;;;;5032925;28;20405;-60
2022/09/14 11:12:11;;;;;;;2.70;1.50;;;;;;;;;;5032866;28;20037;-60
2022/09/14 11:14:45;;;;;;;1.95;1.80;;;;;;;;;;5033362;28;20025;-60
2022/09/14 11:17:10;;;;;;;2.53;1.95;;;;;;;;;;5032994;28;20523;-60
2022/09/14 11:19:54;;;;;;;1.17;1.07;;;;;;;;;;5033012;28;20100;-60
2022/09/14 11:22:39;;;;;;;2.75;2.53;;;;;;;;;;5032838;28;20271;-60
2022/09/14 11:25:10;;;;;;;1.52;1.42;;;;;;;;;;5032678;28;20171;-60
2022/09/14 11:27:51;;;;;;;2.55;2.35;;;;;;;;;;5032556;28;20033;-60
2022/09/14 11:30:21;;;;;;;2.70;2.33;;;;;;;;;;5032603;28;20026;-60
2022/09/14 11:32:54;;;;;;;2.63;2.35;;;;;;;;;;5031451;28;20732;-60
2022/09/14 11:35:24;;;;;;;3.25;2.95;;;;;;;;;;5032183;28;20489;-60
2022/09/14 11:37:56;;;;;;;7.63;2.73;;;;;;;;;;5032849;28;20102;-60
2022/09/14 11:40:29;;;;;;;3.08;2.85;;;;;;;;;;5032335;28;20728;-60
2022/09/14 11:43:10;;;;;;;4.38;2.53;;;;;;;;;;5032413;28;20021;-60
2022/09/14 11:45:50;;;;;;;2.97;2.78;;;;;;;;;;5032357;28;20095;-60
2022/09/14 11:48:19;;;;;;;1.63;1.55;;;;;;;;;;5032573;28;20508;-60
2022/09/14 11:50:45;;;;;;;3.25;2.95;;;;;;;;;;5032515;28;20057;-60
2022/09/14 11:53:14;;;;;;;4.32;3.33;;;;;;;;;;5032510;28;20029;-60
2022/09/14 11:55:43;;;;;;;6.78;3.45;;;;;;;;;;5032438;28;20556;-60
2022/09/14 11:58:17;;;;;;;3.20;2.95;;;;;;;;;;5032041;28;20029;-60
2022/09/14 12:00:59;;;;;;;1.85;1.75;;;;;;;;;;5032459;28;20393;-60
2022/09/14 12:03:44;;;;;;;1.63;1.52;;;;;;;;;;5032489;28;20036;-60
2022/09/14 12:06:28;;;;;;;0.63;0.63;;;;;;;;;;5036118;28;20029;-60
2022/09/14 12:08:53;;;;;;;2.75;2.55;;;;;;;;;;5036343;28;20033;-60
2022/09/14 12:11:29;;;;;;;3.35;3.05;;;;;;;;;;5036636;28;20155;-60
2022/09/14 12:14:12;;;;;;;3.22;2.97;;;;;;;;;;5036809;28;20416;-60
2022/09/14 12:16:56;;;;;;;3.63;2.47;;;;;;;;;;5037299;28;20045;-60
2022/09/14 12:19:24;;;;;;;2.97;2.78;;;;;;;;;;5036977;28;20079;-60
2022/09/14 12:21:50;;;;;;;4.32;3.10;;;;;;;;;;5037162;28;20453;-60
2022/09/14 12:24:20;;;;;;;2.97;2.78;;;;;;;;;;5036870;28;20041;-60
2022/09/14 12:26:46;;;;;;;4.38;2.10;;;;;;;;;;5036889;28;20044;-60
2022/09/14 12:29:31;;;;;;;3.67;2.83;;;;;;;;;;5036654;28;20088;-60
2022/09/14 12:31:59;;;;;;;1.80;1.70;;;;;;;;;;5034686;28;20025;-60
2022/09/14 12:34:26;;;;;;;3.00;2.67;;;;;;;;;;5035286;28;20504;-60
2022/09/14 12:36:52;;;;;;;4.55;2.40;;;;;;;;;;5035576;28;20152;-60
2022/09/14 12:39:34;;;;;;;3.03;2.50;;;;;;;;;;5034695;28;20468;-60
2022/09/14 12:42:00;;;;;;;3.70;3.40;;;;;;;;;;5035923;28;20041;-63
2022/09/14 12:44:35;;;;;;;2.20;1.27;;;;;;;;;;5035182;28;20028;-63
2022/09/14 12:47:19;;;;;;;2.75;2.55;;;;;;;;;;5034493;28;20049;-63
2022/09/14 12:49:45;;;;;;;3.35;3.05;;;;;;;;;;5035363;28;20040;-63
2022/09/14 12:52:17;;;;;;;3.05;2.45;;;;;;;;;;5017794;28;20045;-63
2022/09/14 12:54:55;;;;;;;3.08;2.80;;;;;;;;;;5035687;28;20025;-63
2022/09/14 12:57:34;;;;;;;2.75;1.45;;;;;;;;;;5034242;28;20026;-64
2022/09/14 13:00:04;;;;;;;2.05;1.85;;;;;;;;;;5036361;28;20414;-64
2022/09/14 13:02:33;;;;;;;1.67;1.58;;;;;;;;;;5037575;28;20038;-63
2022/09/14 13:04:59;;;;;;;4.15;2.45;;;;;;;;;;5037042;28;20078;-64
2022/09/14 13:07:27;;;;;;;2.70;2.50;;;;;;;;;;5035565;28;20104;-64
2022/09/14 13:09:53;;;;;;;1.73;1.63;;;;;;;;;;5035272;28;20030;-64
2022/09/14 13:12:28;;;;;;;2.20;1.98;;;;;;;;;;5036373;28;20032;-63
2022/09/14 13:14:57;;;;;;;3.00;2.72;;;;;;;;;;5065047;22;20102;-60
2022/09/14 13:17:23;;;;;;;3.10;2.55;;;;;;;;;;5056008;28;20033;-60
2022/09/14 13:19:55;;;;;;;2.92;2.72;;;;;;;;;;5056305;28;20051;-60
2022/09/14 13:22:21;;;;;;;3.30;2.40;;;;;;;;;;5054975;28;20051;-60
2022/09/14 13:24:47;;;;;;;2.65;2.45;;;;;;;;;;5056066;28;20025;-60
2022/09/14 13:27:39;;;;;;;2.83;2.58;;;;;;;;;;5056391;28;20052;-60
2022/09/14 13:30:05;;;;;;;3.28;2.40;;;;;;;;;;5052626;28;20049;-60
2022/09/14 13:32:33;;;;;;;2.50;2.40;;;;;;;;;;5056035;28;20075;-60
2022/09/14 13:34:58;;;;;;;3.33;3.03;;;;;;;;;;5056124;28;20055;-60
2022/09/14 13:37:24;;;;;;;2.55;2.33;;;;;;;;;;5056136;28;20017;-60
2022/09/14 13:39:53;;;;;;;2.53;2.33;;;;;;;;;;5056008;28;20385;-60
2022/09/14 13:42:20;;;;;;;3.03;2.70;;;;;;;;;;5055997;28;20492;-60
2022/09/14 13:44:48;;;;;;;2.67;2.47;;;;;;;;;;5055393;28;20036;-61
2022/09/14 13:47:15;;;;;;;2.83;2.63;;;;;;;;;;5055727;28;20025;-63
2022/09/14 13:49:41;;;;;;;4.28;2.55;;;;;;;;;;5055858;28;20354;-63
2022/09/14 13:52:21;;;;;;;2.85;2.53;;;;;;;;;;5055696;28;20044;-63
2022/09/14 13:54:48;;;;;;;2.40;2.20;;;;;;;;;;5055785;28;20029;-64
2022/09/14 13:57:17;;;;;;;3.10;2.75;;;;;;;;;;5054770;28;20013;-64
2022/09/14 14:00:01;;;;;;;3.55;3.25;;;;;;;;;;5054581;28;20025;-64
2022/09/14 14:02:31;;;;;;;2.78;2.58;;;;;;;;;;5055297;28;20044;-64
2022/09/14 14:04:56;;;;;;;3.05;2.85;;;;;;;;;;5037109;28;20024;-63
2022/09/14 14:07:24;;;;;;;2.65;2.55;;;;;;;;;;5054248;28;20029;-64
2022/09/14 14:09:51;;;;;;;2.85;1.90;;;;;;;;;;5054135;28;20070;-64
2022/09/14 14:12:22;;;;;;;2.50;2.40;;;;;;;;;;5054188;28;20036;-63
2022/09/14 14:15:15;;;;;;;2.90;2.33;;;;;;;;;;5036015;28;20035;-63
2022/09/14 14:17:40;;;;;;;2.92;2.45;;;;;;;;;;5030686;28;20469;-64
2022/09/14 14:20:24;;;;;;;2.05;1.95;;;;;;;;;;5054011;28;20039;-64
2022/09/14 14:22:53;;;;;;;2.30;2.20;;;;;;;;;;5053987;28;20385;-64
2022/09/14 14:25:26;;;;;;;2.40;2.28;;;;;;;;;;5036052;28;20039;-64
2022/09/14 14:27:56;;;;;;;2.35;2.25;;;;;;;;;;5052597;28;20029;-64
2022/09/14 14:30:22;;;;;;;2.97;2.33;;;;;;;;;;5052597;28;20344;-63
2022/09/14 14:32:52;;;;;;;3.17;2.50;;;;;;;;;;5035925;28;20392;-64
2022/09/14 14:35:22;;;;;;;2.90;2.63;;;;;;;;;;5053748;28;20487;-64
2022/09/14 14:37:48;;;;;;;2.20;1.92;;;;;;;;;;5053726;28;20025;-63
2022/09/14 14:40:15;;;;;;;2.40;2.25;;;;;;;;;;5053621;28;20047;-64
2022/09/14 14:42:41;;;;;;;1.98;1.88;;;;;;;;;;5053696;28;20051;-64
2022/09/14 14:45:11;;;;;;;2.28;2.17;;;;;;;;;;5053589;28;20524;-64
2022/09/14 14:47:37;;;;;;;2.30;2.20;;;;;;;;;;5053484;28;20036;-64
2022/09/14 14:50:02;;;;;;;2.28;2.17;;;;;;;;;;5053352;28;20020;-64
2022/09/14 14:52:28;;;;;;;3.03;2.60;;;;;;;;;;5052212;28;20534;-63
2022/09/14 14:54:54;;;;;;;5.30;2.45;;;;;;;;;;5054381;28;20074;-63
2022/09/14 14:57:20;;;;;;;2.35;2.25;;;;;;;;;;5054700;28;20021;-64